createdAt,value
2023-04-04T00:02:00.662Z,-1.19
2023-04-04T00:04:28.072Z,-1.17
2023-04-04T00:06:55.187Z,-1.29
2023-04-04T00:09:22.328Z,-1.26
2023-04-04T00:11:49.511Z,-1.26
2023-04-04T00:14:17.943Z,-1.22
2023-04-04T00:16:45.089Z,-1.21
2023-04-04T00:19:17.899Z,-1.18
2023-04-04T00:21:47.872Z,-1.29
2023-04-04T00:24:14.859Z,-1.22
2023-04-04T00:26:42.212Z,-1.24
2023-04-04T00:29:09.325Z,-1.17
2023-04-04T00:31:36.628Z,-1.20
2023-04-04T00:34:03.722Z,-1.25
2023-04-04T00:36:30.781Z,-1.24
2023-04-04T00:38:57.826Z,-1.23
2023-04-04T00:41:25.382Z,-1.17
2023-04-04T00:43:52.823Z,-1.17
2023-04-04T00:46:20.766Z,-1.35
2023-04-04T00:48:48.077Z,-1.26
2023-04-04T00:51:15.138Z,-1.29
2023-04-04T00:53:44.649Z,-1.39
2023-04-04T00:56:12.207Z,-1.38
2023-04-04T00:58:39.975Z,-1.29
2023-04-04T01:01:07.925Z,-1.45
2023-04-04T01:03:35.434Z,-1.36
2023-04-04T01:06:02.771Z,-1.42
2023-04-04T01:08:30.400Z,-1.47
2023-04-04T01:10:57.533Z,-1.38
2023-04-04T01:13:25.862Z,-1.48
2023-04-04T01:15:53.085Z,-1.50
2023-04-04T01:18:21.460Z,-1.66
2023-04-04T01:20:54.249Z,-1.75
2023-04-04T01:23:23.262Z,-1.36
2023-04-04T01:25:50.276Z,-1.71
2023-04-04T01:28:17.424Z,-1.60
2023-04-04T01:30:45.579Z,-1.85
2023-04-04T01:33:16.573Z,-1.90
2023-04-04T01:35:47.429Z,-2.01
2023-04-04T01:38:18.850Z,-1.83
2023-04-04T01:40:49.012Z,-1.72
2023-04-04T01:43:17.074Z,-1.83
2023-04-04T01:45:46.221Z,-1.91
2023-04-04T01:48:16.635Z,-1.78
2023-04-04T01:50:46.992Z,-1.92
2023-04-04T01:53:14.151Z,-2.21
2023-04-04T01:55:41.163Z,-2.24
2023-04-04T01:58:08.430Z,-2.32
2023-04-04T02:00:35.665Z,-2.64
2023-04-04T02:03:04.017Z,-2.62
2023-04-04T02:05:31.422Z,-2.63
2023-04-04T02:07:58.558Z,-2.57
2023-04-04T02:10:35.436Z,-2.45
2023-04-04T02:13:04.649Z,-2.50
2023-04-04T02:15:31.688Z,-2.68
2023-04-04T02:18:00.581Z,-2.66
2023-04-04T02:20:29.003Z,-2.49
2023-04-04T02:22:57.094Z,-2.38
2023-04-04T02:25:25.076Z,-2.44
2023-04-04T02:27:52.318Z,-2.54
2023-04-04T02:30:19.558Z,-2.36
2023-04-04T02:32:47.507Z,-2.62
2023-04-04T02:35:17.963Z,-2.67
2023-04-04T02:37:46.662Z,-2.46
2023-04-04T02:40:20.934Z,-2.70
2023-04-04T02:42:48.158Z,-2.46
2023-04-04T02:45:15.648Z,-2.48
2023-04-04T02:47:50.638Z,-2.40
2023-04-04T02:50:19.096Z,-2.80
2023-04-04T02:52:54.904Z,-2.62
2023-04-04T02:55:21.982Z,-2.45
2023-04-04T02:57:52.554Z,-2.56
2023-04-04T03:00:20.198Z,-2.87
2023-04-04T03:02:53.447Z,-2.64
2023-04-04T03:05:21.318Z,-2.79
2023-04-04T03:07:48.328Z,-3.10
2023-04-04T03:10:15.828Z,-3.08
2023-04-04T03:12:42.922Z,-3.03
2023-04-04T03:15:10.249Z,-2.90
2023-04-04T03:17:38.755Z,-2.89
2023-04-04T03:20:06.768Z,-2.97
2023-04-04T03:22:34.107Z,-3.05
2023-04-04T03:25:03.581Z,-2.96
2023-04-04T03:27:34.029Z,-2.83
2023-04-04T03:30:01.582Z,-2.74
2023-04-04T03:32:32.538Z,-2.81
2023-04-04T03:34:59.652Z,-2.76
2023-04-04T03:37:26.794Z,-2.86
2023-04-04T03:39:53.854Z,-2.75
2023-04-04T03:42:21.881Z,-2.70
2023-04-04T03:44:49.068Z,-2.63
2023-04-04T03:47:25.967Z,-2.96
2023-04-04T03:49:53.037Z,-2.79
2023-04-04T03:52:20.071Z,-2.97
2023-04-04T03:54:47.199Z,-3.00
2023-04-04T03:57:14.283Z,-3.06
2023-04-04T03:59:43.223Z,-2.99
2023-04-04T04:02:10.456Z,-3.00
2023-04-04T04:04:37.601Z,-2.94
2023-04-04T04:07:04.699Z,-2.92
2023-04-04T04:09:31.863Z,-2.98
2023-04-04T04:11:58.910Z,-2.82
2023-04-04T04:14:26.171Z,-2.69
2023-04-04T04:16:53.500Z,-2.75
2023-04-04T04:19:22.584Z,-2.75
2023-04-04T04:21:49.758Z,-2.66
2023-04-04T04:24:17.471Z,-2.56
2023-04-04T04:26:44.533Z,-2.71
2023-04-04T04:29:16.252Z,-2.64
2023-04-04T04:31:43.481Z,-2.42
2023-04-04T04:34:11.070Z,-2.45
2023-04-04T04:36:40.223Z,-2.37
2023-04-04T04:39:23.404Z,-2.39
2023-04-04T04:42:10.998Z,-2.44
2023-04-04T04:44:46.034Z,-2.42
2023-04-04T04:47:13.213Z,-2.37
2023-04-04T04:49:40.287Z,-2.30
2023-04-04T04:52:10.290Z,-2.53
2023-04-04T04:54:43.698Z,-2.44
2023-04-04T04:57:11.208Z,-2.42
2023-04-04T04:59:41.782Z,-2.68
2023-04-04T05:02:10.930Z,-2.72
2023-04-04T05:04:45.261Z,-2.57
2023-04-04T05:07:14.258Z,-2.45
2023-04-04T05:09:44.272Z,-2.37
2023-04-04T05:12:12.749Z,-2.21
2023-04-04T05:14:43.483Z,-2.19
2023-04-04T05:17:10.857Z,-1.99
2023-04-04T05:19:38.012Z,-1.84
2023-04-04T05:22:07.312Z,-1.65
2023-04-04T05:24:43.144Z,-1.52
2023-04-04T05:27:13.787Z,-1.43
2023-04-04T05:29:47.524Z,-1.27
2023-04-04T05:32:15.925Z,-1.20
2023-04-04T05:34:49.320Z,-1.08
2023-04-04T05:37:18.906Z,-1.04
2023-04-04T05:39:49.052Z,-0.65
2023-04-04T05:42:16.967Z,-0.58
2023-04-04T05:44:49.097Z,-0.75
2023-04-04T05:47:16.508Z,-0.57
2023-04-04T05:49:46.836Z,0.20
2023-04-04T05:52:13.907Z,0.31
2023-04-04T05:54:41.066Z,-0.17
2023-04-04T05:57:14.139Z,0.50
2023-04-04T05:59:48.902Z,0.67
2023-04-04T06:02:17.453Z,0.76
2023-04-04T06:04:50.354Z,0.39
2023-04-04T06:07:25.246Z,0.90
2023-04-04T06:09:52.299Z,0.70
2023-04-04T06:12:20.539Z,0.61
2023-04-04T06:14:47.859Z,0.54
2023-04-04T06:17:19.625Z,1.56
2023-04-04T06:19:46.699Z,1.43
2023-04-04T06:22:13.794Z,1.12
2023-04-04T06:24:46.619Z,1.51
2023-04-04T06:27:13.874Z,1.97
2023-04-04T06:29:41.454Z,1.66
2023-04-04T06:32:09.610Z,1.65
2023-04-04T06:34:40.055Z,2.54
2023-04-04T06:37:08.157Z,2.25
2023-04-04T06:39:41.666Z,2.39
2023-04-04T06:42:16.163Z,3.11
2023-04-04T06:44:48.230Z,2.55
2023-04-04T06:47:15.286Z,3.01
2023-04-04T06:49:42.459Z,3.82
2023-04-04T06:52:09.548Z,3.36
2023-04-04T06:54:36.644Z,2.82
2023-04-04T06:57:03.689Z,3.60
2023-04-04T06:59:30.769Z,3.74
2023-04-04T07:01:58.021Z,3.81
2023-04-04T07:04:26.030Z,4.18
2023-04-04T07:06:53.059Z,3.97
2023-04-04T07:09:28.846Z,3.46
2023-04-04T07:11:56.870Z,4.39
2023-04-04T07:14:25.408Z,3.91
2023-04-04T07:16:53.448Z,3.99
2023-04-04T07:19:20.761Z,2.93
2023-04-04T07:21:47.787Z,2.83
2023-04-04T07:24:14.805Z,4.06
2023-04-04T07:26:41.886Z,3.79
2023-04-04T07:29:09.552Z,3.79
2023-04-04T07:31:36.739Z,3.00
2023-04-04T07:34:04.144Z,3.46
2023-04-04T07:36:31.514Z,3.35
2023-04-04T07:38:58.586Z,2.70
2023-04-04T07:41:28.434Z,2.36
2023-04-04T07:43:55.476Z,3.00
2023-04-04T07:46:22.580Z,3.89
2023-04-04T07:48:50.559Z,2.73
2023-04-04T07:51:18.051Z,3.56
2023-04-04T07:53:45.107Z,3.64
2023-04-04T07:56:12.145Z,2.89
2023-04-04T07:58:39.184Z,2.21
2023-04-04T08:01:06.364Z,2.84
2023-04-04T08:03:33.592Z,2.06
2023-04-04T08:06:00.982Z,1.74
2023-04-04T08:08:28.124Z,1.93
2023-04-04T08:10:55.475Z,1.74
2023-04-04T08:13:22.527Z,1.47
2023-04-04T08:15:49.730Z,1.29
2023-04-04T08:18:16.878Z,1.29
2023-04-04T08:20:44.074Z,1.37
2023-04-04T08:23:12.888Z,1.30
2023-04-04T08:25:40.176Z,1.48
2023-04-04T08:28:07.277Z,1.32
2023-04-04T08:30:34.375Z,1.46
2023-04-04T08:33:02.384Z,1.35
2023-04-04T08:35:31.129Z,0.99
2023-04-04T08:37:58.175Z,1.18
2023-04-04T08:40:25.478Z,1.10
2023-04-04T08:42:53.068Z,1.38
2023-04-04T08:45:21.647Z,1.79
2023-04-04T08:47:50.534Z,2.08
2023-04-04T08:50:19.227Z,1.95
2023-04-04T08:52:46.570Z,1.60
2023-04-04T08:55:14.098Z,1.50
2023-04-04T08:57:42.238Z,1.23
2023-04-04T09:00:09.890Z,1.39
2023-04-04T09:02:46.523Z,1.23
2023-04-04T09:05:15.452Z,1.29
2023-04-04T09:07:43.640Z,1.43
2023-04-04T09:10:11.821Z,1.44
2023-04-04T09:12:43.004Z,1.65
2023-04-04T09:15:10.410Z,1.05
2023-04-04T09:17:37.525Z,1.39
2023-04-04T09:20:24.646Z,1.20
2023-04-04T09:22:51.687Z,1.35
2023-04-04T09:25:18.745Z,1.27
2023-04-04T09:27:45.793Z,1.33
2023-04-04T09:30:12.953Z,1.25
2023-04-04T09:32:41.434Z,1.27
2023-04-04T09:35:09.253Z,1.28
2023-04-04T09:37:36.476Z,1.61
2023-04-04T09:40:04.477Z,1.82
2023-04-04T09:42:32.713Z,1.77
2023-04-04T09:45:00.783Z,1.70
2023-04-04T09:47:31.431Z,1.50
2023-04-04T09:50:03.731Z,1.91
2023-04-04T09:52:35.818Z,1.94
2023-04-04T09:55:03.984Z,1.86
2023-04-04T09:57:38.003Z,2.11
2023-04-04T10:00:09.456Z,2.16
2023-04-04T10:02:37.148Z,2.45
2023-04-04T10:05:06.612Z,2.28
2023-04-04T10:07:38.029Z,2.16
2023-04-04T10:10:05.828Z,2.08
2023-04-04T10:12:33.097Z,2.60
2023-04-04T10:15:00.677Z,2.28
2023-04-04T10:17:48.003Z,2.85
2023-04-04T10:20:18.702Z,2.66
2023-04-04T10:22:46.239Z,2.13
2023-04-04T10:25:14.250Z,2.23
2023-04-04T10:27:41.510Z,2.59
2023-04-04T10:30:09.645Z,2.20
2023-04-04T10:32:55.416Z,2.26
2023-04-04T10:35:24.293Z,2.22
2023-04-04T10:37:57.620Z,2.21
2023-04-04T10:40:27.817Z,1.82
2023-04-04T10:42:55.324Z,2.22
2023-04-04T10:45:22.514Z,2.15
2023-04-04T10:47:50.566Z,2.12
2023-04-04T10:50:20.002Z,2.31
2023-04-04T10:52:47.503Z,2.48
2023-04-04T10:55:15.900Z,2.49
2023-04-04T10:57:43.989Z,2.49
2023-04-04T11:00:12.947Z,2.44
2023-04-04T11:02:52.436Z,2.34
2023-04-04T11:05:42.570Z,2.34
2023-04-04T11:08:10.932Z,2.04
2023-04-04T11:10:39.373Z,2.47
2023-04-04T11:13:14.797Z,2.47
2023-04-04T11:15:45.831Z,2.54
2023-04-04T11:18:22.154Z,2.70
2023-04-04T11:21:02.568Z,3.10
2023-04-04T11:23:39.336Z,2.54
2023-04-04T11:26:07.352Z,2.59
2023-04-04T11:28:34.484Z,2.47
2023-04-04T11:31:17.501Z,2.49
2023-04-04T11:33:55.279Z,2.11
2023-04-04T11:36:37.781Z,2.51
2023-04-04T11:39:11.581Z,2.70
2023-04-04T11:41:48.494Z,2.71
2023-04-04T11:44:16.366Z,2.63
2023-04-04T11:46:43.557Z,2.70
2023-04-04T11:49:14.223Z,2.89
2023-04-04T11:51:41.901Z,2.94
2023-04-04T11:54:16.152Z,3.39
2023-04-04T11:56:44.919Z,3.18
2023-04-04T11:59:12.620Z,2.99
2023-04-04T12:01:40.658Z,3.58
2023-04-04T12:04:07.972Z,3.20
2023-04-04T12:06:37.735Z,3.25
2023-04-04T12:09:05.472Z,3.44
2023-04-04T12:11:36.366Z,3.59
2023-04-04T12:14:03.457Z,3.88
2023-04-04T12:16:30.709Z,3.95
2023-04-04T12:19:01.178Z,3.67
2023-04-04T12:21:31.422Z,3.39
2023-04-04T12:23:58.603Z,3.64
2023-04-04T12:26:29.643Z,3.79
2023-04-04T12:28:58.182Z,4.10
2023-04-04T12:31:26.280Z,4.09
2023-04-04T12:33:53.418Z,3.83
2023-04-04T12:36:20.634Z,3.58
2023-04-04T12:39:01.419Z,3.59
2023-04-04T12:41:28.810Z,3.86
2023-04-04T12:44:02.917Z,4.29
2023-04-04T12:46:39.761Z,3.96
2023-04-04T12:49:08.237Z,4.04
2023-04-04T12:51:36.188Z,4.18
2023-04-04T12:54:04.623Z,3.96
2023-04-04T12:56:31.943Z,3.71
2023-04-04T12:59:05.553Z,3.60
2023-04-04T13:01:33.184Z,3.65
2023-04-04T13:04:03.038Z,3.75
2023-04-04T13:06:31.103Z,3.82
2023-04-04T13:08:58.718Z,4.34
2023-04-04T13:11:26.510Z,4.22
2023-04-04T13:14:00.546Z,3.96
2023-04-04T13:16:31.702Z,3.92
2023-04-04T13:18:59.189Z,3.73
2023-04-04T13:21:26.726Z,3.46
2023-04-04T13:23:53.787Z,3.69
2023-04-04T13:26:21.683Z,3.86
2023-04-04T13:28:48.781Z,3.74
2023-04-04T13:31:16.380Z,4.00
2023-04-04T13:33:43.532Z,3.99
2023-04-04T13:36:10.768Z,3.94
2023-04-04T13:38:37.874Z,4.09
2023-04-04T13:41:05.194Z,4.15
2023-04-04T13:43:32.293Z,4.18
2023-04-04T13:45:59.401Z,4.25
2023-04-04T13:48:27.113Z,4.16
2023-04-04T13:50:55.384Z,4.03
2023-04-04T13:53:22.734Z,3.96
2023-04-04T13:56:13.293Z,4.01
2023-04-04T13:58:36.899Z,3.90
2023-04-04T14:01:04.469Z,3.78
2023-04-04T14:03:32.008Z,4.02
2023-04-04T14:06:03.817Z,3.69
2023-04-04T14:08:36.984Z,3.79
2023-04-04T14:11:04.259Z,3.57
2023-04-04T14:13:32.625Z,3.37
2023-04-04T14:15:59.708Z,3.38
2023-04-04T14:18:27.163Z,3.40
2023-04-04T14:20:54.264Z,3.25
2023-04-04T14:23:22.087Z,3.38
2023-04-04T14:25:50.847Z,3.40
2023-04-04T14:28:18.072Z,3.75
2023-04-04T14:30:45.126Z,3.88
2023-04-04T14:33:12.383Z,3.91
2023-04-04T14:35:39.764Z,3.71
2023-04-04T14:38:07.059Z,3.55
2023-04-04T14:40:34.101Z,3.46
2023-04-04T14:43:01.130Z,3.19
2023-04-04T14:45:32.253Z,3.26
2023-04-04T14:47:59.398Z,3.10
2023-04-04T14:50:26.612Z,3.12
2023-04-04T14:52:56.355Z,3.23
2023-04-04T14:55:23.537Z,3.33
2023-04-04T15:00:20.990Z,2.89
2023-04-04T15:02:48.161Z,2.74
2023-04-04T15:05:15.479Z,2.71
2023-04-04T15:07:42.703Z,2.70
2023-04-04T15:10:10.170Z,2.61
2023-04-04T15:12:37.327Z,2.67
2023-04-04T15:15:04.640Z,2.65
2023-04-04T15:17:31.766Z,2.68
2023-04-04T15:19:59.841Z,2.84
2023-04-04T15:22:26.881Z,2.81
2023-04-04T15:24:55.969Z,2.89
2023-04-04T15:27:23.095Z,3.06
2023-04-04T15:29:50.188Z,3.07
2023-04-04T15:32:17.313Z,3.08
2023-04-04T15:34:44.385Z,3.23
2023-04-04T15:37:12.275Z,3.04
2023-04-04T15:39:49.675Z,3.14
2023-04-04T15:42:19.797Z,3.20
2023-04-04T15:44:46.914Z,3.02
2023-04-04T15:47:14.856Z,2.86
2023-04-04T15:49:41.962Z,2.70
2023-04-04T15:52:09.040Z,2.53
2023-04-04T15:54:36.129Z,2.49
2023-04-04T15:57:03.220Z,2.40
2023-04-04T15:59:33.432Z,2.40
2023-04-04T16:02:01.093Z,2.38
2023-04-04T16:04:28.122Z,2.39
2023-04-04T16:06:55.420Z,2.24
2023-04-04T16:09:22.535Z,2.28
2023-04-04T16:11:49.580Z,2.21
2023-04-04T16:14:16.736Z,2.16
2023-04-04T16:16:43.754Z,2.11
2023-04-04T16:19:16.868Z,2.08
2023-04-04T16:21:44.018Z,2.06
2023-04-04T16:24:12.674Z,2.13
2023-04-04T16:26:39.915Z,2.23
2023-04-04T16:29:07.052Z,2.30
2023-04-04T16:31:34.154Z,2.34
2023-04-04T16:34:01.252Z,2.33
2023-04-04T16:36:28.300Z,2.28
2023-04-04T16:38:55.581Z,2.31
2023-04-04T16:41:22.649Z,2.30
2023-04-04T16:43:52.630Z,2.20
2023-04-04T16:46:20.067Z,2.11
2023-04-04T16:48:47.292Z,1.98
2023-04-04T16:51:14.388Z,2.06
2023-04-04T16:53:41.558Z,1.92
2023-04-04T16:56:08.951Z,1.85
2023-04-04T16:58:36.189Z,1.89
2023-04-04T17:01:03.257Z,1.93
2023-04-04T17:03:30.805Z,1.83
2023-04-04T17:06:00.289Z,1.75
2023-04-04T17:08:27.877Z,1.82
2023-04-04T17:10:54.932Z,1.81
2023-04-04T17:13:22.363Z,1.64
2023-04-04T17:15:49.505Z,1.55
2023-04-04T17:18:16.582Z,1.63
2023-04-04T17:20:43.794Z,1.64
2023-04-04T17:23:10.949Z,1.61
2023-04-04T17:25:38.017Z,1.64
2023-04-04T17:28:05.504Z,1.61
2023-04-04T17:30:32.652Z,1.56
2023-04-04T17:32:59.753Z,1.55
2023-04-04T17:35:27.465Z,1.49
2023-04-04T17:37:54.647Z,1.41
2023-04-04T17:40:21.783Z,1.38
2023-04-04T17:42:49.123Z,1.35
2023-04-04T17:45:16.516Z,1.34
2023-04-04T17:47:44.678Z,1.35
2023-04-04T17:50:12.108Z,1.32
2023-04-04T17:52:39.200Z,1.35
2023-04-04T17:55:07.401Z,1.36
2023-04-04T17:57:34.436Z,1.35
2023-04-04T18:00:01.723Z,1.31
2023-04-04T18:02:28.835Z,1.27
2023-04-04T18:04:57.060Z,1.18
2023-04-04T18:07:24.199Z,1.05
2023-04-04T18:09:51.443Z,0.87
2023-04-04T18:12:18.591Z,0.68
2023-04-04T18:14:45.642Z,0.55
2023-04-04T18:17:13.158Z,0.53
2023-04-04T18:19:41.503Z,0.51
2023-04-04T18:22:09.375Z,0.35
2023-04-04T18:24:36.512Z,0.28
2023-04-04T18:27:03.609Z,0.39
2023-04-04T18:29:32.593Z,0.49
2023-04-04T18:32:00.764Z,0.54
2023-04-04T18:34:27.967Z,0.54
2023-04-04T18:36:55.939Z,0.39
2023-04-04T18:39:23.199Z,0.24
2023-04-04T18:41:50.957Z,0.10
2023-04-04T18:44:18.047Z,0.06
2023-04-04T18:46:45.317Z,0.03
2023-04-04T18:49:12.470Z,0.07
2023-04-04T18:51:39.610Z,0.06
2023-04-04T18:54:07.217Z,-0.13
2023-04-04T18:56:34.290Z,-0.18
2023-04-04T18:59:01.899Z,-0.21
2023-04-04T19:01:29.046Z,-0.18
2023-04-04T19:03:56.958Z,-0.23
2023-04-04T19:06:27.494Z,-0.22
2023-04-04T19:08:58.855Z,-0.20
2023-04-04T19:11:26.325Z,-0.16
2023-04-04T19:13:53.326Z,0.04
2023-04-04T19:16:20.453Z,0.13
2023-04-04T19:18:47.581Z,0.09
2023-04-04T19:21:14.667Z,-0.14
2023-04-04T19:23:42.298Z,-0.22
2023-04-04T19:26:09.401Z,-0.07
2023-04-04T19:28:36.812Z,-0.06
2023-04-04T19:31:08.553Z,0.01
2023-04-04T19:33:37.021Z,0.06
2023-04-04T19:36:08.114Z,0.13
2023-04-04T19:38:36.114Z,0.04
2023-04-04T19:41:07.335Z,0.07
2023-04-04T19:43:34.764Z,0.00
2023-04-04T19:46:09.455Z,-0.12
2023-04-04T19:48:43.685Z,-0.36
2023-04-04T19:51:31.967Z,-0.50
2023-04-04T19:53:59.790Z,-0.33
2023-04-04T19:56:27.742Z,-0.29
2023-04-04T19:58:55.920Z,-0.46
2023-04-04T20:01:30.399Z,-0.60
2023-04-04T20:03:58.043Z,-0.65
2023-04-04T20:06:28.902Z,-0.71
2023-04-04T20:08:57.584Z,-0.76
2023-04-04T20:11:32.133Z,-0.80
2023-04-04T20:14:00.139Z,-0.85
2023-04-04T20:16:27.633Z,-0.90
2023-04-04T20:18:54.853Z,-0.94
2023-04-04T20:21:22.909Z,-0.99
2023-04-04T20:23:53.900Z,-0.67
2023-04-04T20:26:36.286Z,-0.35
2023-04-04T20:29:07.771Z,-0.51
2023-04-04T20:31:45.412Z,-0.87
2023-04-04T20:34:32.893Z,-0.95
2023-04-04T20:37:01.596Z,-0.70
2023-04-04T20:39:41.031Z,-0.71
2023-04-04T20:42:18.304Z,-0.53
2023-04-04T20:44:46.027Z,-0.35
2023-04-04T20:47:31.920Z,-0.58
2023-04-04T20:49:58.987Z,-0.84
2023-04-04T20:52:26.169Z,-0.53
2023-04-04T20:54:53.215Z,-0.38
2023-04-04T20:57:23.602Z,-0.32
2023-04-04T20:59:50.813Z,-0.40
2023-04-04T21:02:19.940Z,-0.50
2023-04-04T21:04:49.570Z,-0.35
2023-04-04T21:07:32.081Z,-0.33
2023-04-04T21:10:00.323Z,-0.45
2023-04-04T21:12:27.642Z,-0.84
2023-04-04T21:14:54.696Z,-0.85
2023-04-04T21:17:22.043Z,-0.83
2023-04-04T21:19:50.154Z,-0.88
2023-04-04T21:22:18.081Z,-0.80
2023-04-04T21:24:45.300Z,-0.89
2023-04-04T21:27:32.171Z,-0.66
2023-04-04T21:29:59.166Z,-0.79
2023-04-04T21:32:26.540Z,-0.63
2023-04-04T21:34:53.620Z,-0.65
2023-04-04T21:37:21.412Z,-0.56
2023-04-04T21:39:49.982Z,-0.72
2023-04-04T21:42:18.292Z,-0.70
2023-04-04T21:44:45.409Z,-0.74
2023-04-04T21:47:13.850Z,-0.63
2023-04-04T21:49:41.662Z,-0.46
2023-04-04T21:52:08.780Z,-0.48
2023-04-04T21:54:35.865Z,-0.49
2023-04-04T21:57:02.945Z,-0.68
2023-04-04T21:59:30.252Z,-0.45
2023-04-04T22:01:57.321Z,-0.48
2023-04-04T22:04:24.484Z,-0.58
2023-04-04T22:06:51.548Z,-0.55
2023-04-04T22:09:19.222Z,-0.57
2023-04-04T22:11:46.309Z,-0.67
2023-04-04T22:14:17.338Z,-0.49
2023-04-04T22:16:44.795Z,-0.47
2023-04-04T22:19:15.439Z,-0.58
2023-04-04T22:21:47.523Z,-0.49
2023-04-04T22:24:15.571Z,-0.45
2023-04-04T22:26:42.669Z,-0.45
2023-04-04T22:29:09.966Z,-0.36
2023-04-04T22:31:37.879Z,-0.53
2023-04-04T22:34:06.253Z,-0.42
2023-04-04T22:36:34.559Z,-0.38
2023-04-04T22:39:02.056Z,-0.57
2023-04-04T22:41:29.271Z,-0.48
2023-04-04T22:43:57.141Z,-0.49
2023-04-04T22:46:25.590Z,-0.41
2023-04-04T22:49:04.613Z,-0.41
2023-04-04T22:51:43.940Z,-0.46
2023-04-04T22:54:14.452Z,-0.45
2023-04-04T22:56:41.889Z,-0.41
2023-04-04T22:59:09.130Z,-0.55
2023-04-04T23:01:36.362Z,-0.63
2023-04-04T23:04:03.536Z,-0.64
2023-04-04T23:06:31.428Z,-0.49
2023-04-04T23:08:59.027Z,-0.54
2023-04-04T23:11:27.283Z,-0.53
2023-04-04T23:13:57.042Z,-0.60
2023-04-04T23:16:26.262Z,-0.56
2023-04-04T23:18:53.722Z,-0.58
2023-04-04T23:21:22.068Z,-0.55
2023-04-04T23:23:49.478Z,-0.50
2023-04-04T23:26:16.624Z,-0.46
2023-04-04T23:28:43.670Z,-0.47
2023-04-04T23:31:10.792Z,-0.54
2023-04-04T23:33:38.065Z,-0.51
2023-04-04T23:36:05.399Z,-0.52
2023-04-04T23:38:32.540Z,-0.53
2023-04-04T23:40:59.609Z,-0.51
2023-04-04T23:43:26.745Z,-0.65
2023-04-04T23:45:53.886Z,-0.58
2023-04-04T23:48:21.389Z,-0.60
2023-04-04T23:50:50.097Z,-0.70
2023-04-04T23:53:17.220Z,-0.57
2023-04-04T23:55:44.283Z,-0.66
2023-04-04T23:58:11.322Z,-0.58
